createdAt,value
2018-08-31T00:01:25.288Z,102063.87
2018-08-31T00:05:01.805Z,102063.03
2018-08-31T00:07:47.750Z,102068.31
2018-08-31T00:10:35.699Z,102061.76
2018-08-31T00:13:03.407Z,102060.45
2018-08-31T00:15:31.088Z,102058.72
2018-08-31T00:17:58.803Z,102064.00
2018-08-31T00:20:26.588Z,102054.79
2018-08-31T00:22:54.309Z,102061.37
2018-08-31T00:26:04.436Z,102054.79
2018-08-31T00:29:50.766Z,102051.75
2018-08-31T00:33:33.170Z,102050.91
2018-08-31T00:38:17.340Z,102050.93
2018-08-31T00:40:55.922Z,102045.22
2018-08-31T00:43:35.102Z,102043.03
2018-08-31T00:46:02.920Z,102049.13
2018-08-31T00:48:30.942Z,102047.39
2018-08-31T00:50:59.053Z,102047.82
2018-08-31T00:53:28.109Z,102044.75
2018-08-31T00:55:56.093Z,102046.50
2018-08-31T00:58:23.799Z,102052.65
2018-08-31T01:00:51.853Z,102051.78
2018-08-31T01:03:20.120Z,102060.56
2018-08-31T01:05:48.478Z,102050.93
2018-08-31T01:08:16.444Z,102053.58
2018-08-31T01:10:44.134Z,102054.91
2018-08-31T01:13:12.098Z,102057.97
2018-08-31T01:15:39.780Z,102055.34
2018-08-31T01:18:07.520Z,102059.33
2018-08-31T01:20:35.654Z,102062.81
2018-08-31T01:23:03.336Z,102065.46
2018-08-31T01:25:32.763Z,102073.35
2018-08-31T01:28:00.555Z,102066.77
2018-08-31T01:30:28.551Z,102064.63
2018-08-31T01:32:56.245Z,102069.47
2018-08-31T01:35:24.234Z,102072.09
2018-08-31T01:37:51.910Z,102072.55
2018-08-31T01:40:20.139Z,102070.80
2018-08-31T01:42:48.149Z,102081.77
2018-08-31T01:45:15.849Z,102073.45
2018-08-31T01:47:43.777Z,102074.34
2018-08-31T01:50:11.441Z,102070.83
2018-08-31T01:52:39.301Z,102063.84
2018-08-31T01:55:07.383Z,102064.72
2018-08-31T01:57:35.382Z,102073.05
2018-08-31T02:00:03.336Z,102068.26
2018-08-31T02:02:31.092Z,102069.11
2018-08-31T02:04:59.339Z,102061.70
2018-08-31T02:07:27.766Z,102066.09
2018-08-31T02:09:55.530Z,102066.98
2018-08-31T02:12:23.250Z,102070.92
2018-08-31T02:14:51.256Z,102068.73
2018-08-31T02:17:19.228Z,102066.56
2018-08-31T02:19:46.936Z,102074.89
2018-08-31T02:22:14.692Z,102066.14
2018-08-31T02:24:42.780Z,102068.80
2018-08-31T02:27:10.502Z,102073.59
2018-08-31T02:29:38.524Z,102072.75
2018-08-31T02:32:06.265Z,102076.70
2018-08-31T02:34:34.254Z,102079.33
2018-08-31T02:37:02.595Z,102075.83
2018-08-31T02:39:30.646Z,102071.03
2018-08-31T02:41:58.883Z,102068.83
2018-08-31T02:44:26.937Z,102076.73
2018-08-31T02:46:54.651Z,102072.79
2018-08-31T02:49:22.385Z,102075.89
2018-08-31T02:51:56.843Z,102071.06
2018-08-31T02:54:25.240Z,102070.63
2018-08-31T02:56:52.983Z,102069.33
2018-08-31T02:59:21.137Z,102070.66
2018-08-31T03:01:48.860Z,102069.36
2018-08-31T03:04:17.325Z,102065.41
2018-08-31T03:06:45.653Z,102071.56
2018-08-31T03:09:13.532Z,102068.93
2018-08-31T03:11:41.469Z,102065.47
2018-08-31T03:14:09.209Z,102068.53
2018-08-31T03:16:36.956Z,102066.38
2018-08-31T03:19:04.930Z,102069.02
2018-08-31T03:21:33.001Z,102069.91
2018-08-31T03:24:01.003Z,102063.34
2018-08-31T03:26:28.912Z,102071.23
2018-08-31T03:28:56.945Z,102065.09
2018-08-31T03:31:24.928Z,102072.14
2018-08-31T03:33:52.988Z,102070.84
2018-08-31T03:36:20.934Z,102064.27
2018-08-31T03:38:48.943Z,102071.75
2018-08-31T03:41:16.705Z,102068.70
2018-08-31T03:43:44.476Z,102072.23
2018-08-31T03:46:12.490Z,102074.41
2018-08-31T03:48:40.279Z,102072.67
2018-08-31T03:51:08.242Z,102073.98
2018-08-31T03:53:36.000Z,102069.63
2018-08-31T03:56:04.309Z,102079.22
2018-08-31T03:58:32.595Z,102074.44
2018-08-31T04:01:00.296Z,102067.45
2018-08-31T04:03:28.069Z,102073.61
2018-08-31T04:05:55.783Z,102080.19
2018-08-31T04:08:23.692Z,102081.05
2018-08-31T04:10:51.735Z,102076.69
2018-08-31T04:41:12.245Z,102075.10
2018-08-31T04:43:40.271Z,102073.78
2018-08-31T04:46:08.176Z,102067.64
2018-08-31T04:48:35.918Z,102065.44
2018-08-31T04:51:03.751Z,102077.67
2018-08-31T04:53:31.643Z,102076.36
2018-08-31T04:55:59.359Z,102076.36
2018-08-31T04:58:27.355Z,102078.56
2018-08-31T05:00:55.926Z,102082.51
2018-08-31T05:03:24.523Z,102083.40
2018-08-31T05:05:52.191Z,102083.40
2018-08-31T05:08:20.106Z,102082.98
2018-08-31T05:10:47.848Z,102086.92
2018-08-31T05:13:15.704Z,102086.92
2018-08-31T05:15:43.386Z,102077.31
2018-08-31T05:18:11.273Z,102088.61
2018-08-31T05:20:38.965Z,102089.06
2018-08-31T05:23:06.861Z,102091.64
2018-08-31T05:25:34.858Z,102089.00
2018-08-31T05:28:02.797Z,102095.98
2018-08-31T05:30:30.546Z,102096.87
2018-08-31T05:32:59.064Z,102096.45
2018-08-31T05:35:27.115Z,102104.75
2018-08-31T05:37:54.828Z,102096.88
2018-08-31T05:40:22.518Z,102100.82
2018-08-31T05:42:50.584Z,102105.65
2018-08-31T05:45:18.925Z,102101.70
2018-08-31T05:47:46.614Z,102099.94
2018-08-31T05:50:14.740Z,102103.45
2018-08-31T05:52:42.450Z,102111.33
2018-08-31T05:55:10.866Z,102110.42
2018-08-31T05:57:38.795Z,102113.05
2018-08-31T06:00:06.802Z,102118.72
2018-08-31T06:02:34.750Z,102113.45
2018-08-31T06:05:02.479Z,102114.30
2018-08-31T06:07:30.724Z,102117.34
2018-08-31T06:09:58.906Z,102117.34
2018-08-31T06:12:26.824Z,102114.72
2018-08-31T06:14:54.442Z,102115.62
2018-08-31T06:17:22.377Z,102116.46
2018-08-31T06:19:50.252Z,102116.45
2018-08-31T06:22:18.153Z,102120.38
2018-08-31T06:24:45.817Z,102114.66
2018-08-31T06:27:14.132Z,102120.80
2018-08-31T06:29:42.303Z,102117.76
2018-08-31T06:32:09.993Z,102125.19
2018-08-31T06:34:38.160Z,102121.70
2018-08-31T06:37:06.534Z,102118.61
2018-08-31T06:39:34.625Z,102119.06
2018-08-31T06:42:02.857Z,102117.30
2018-08-31T06:44:31.415Z,102119.92
2018-08-31T06:46:59.155Z,102126.95
2018-08-31T06:49:26.983Z,102127.79
2018-08-31T06:51:54.901Z,102125.17
2018-08-31T06:54:22.564Z,102125.59
2018-08-31T06:56:50.398Z,102123.41
2018-08-31T06:59:18.088Z,102126.05
2018-08-31T07:01:46.101Z,102128.20
2018-08-31T07:04:14.000Z,102126.41
2018-08-31T07:06:41.935Z,102121.59
2018-08-31T07:09:10.792Z,102129.02
2018-08-31T07:11:38.777Z,102129.02
2018-08-31T07:14:07.257Z,102130.75
2018-08-31T07:16:34.970Z,102128.53
2018-08-31T07:19:02.866Z,102128.52
2018-08-31T07:21:30.920Z,102135.09
2018-08-31T07:23:58.534Z,102138.14
2018-08-31T07:26:26.928Z,102135.07
2018-08-31T07:28:54.573Z,102138.96
2018-08-31T07:31:22.318Z,102137.64
2018-08-31T07:33:50.602Z,102135.47
2018-08-31T07:36:18.566Z,102138.05
2018-08-31T07:38:46.118Z,102145.08
2018-08-31T07:41:14.215Z,102138.92
2018-08-31T07:43:41.963Z,102139.80
2018-08-31T07:46:10.134Z,102139.34
2018-08-31T07:48:37.815Z,102137.59
2018-08-31T07:51:05.918Z,102138.00
2018-08-31T07:53:33.593Z,102141.48
2018-08-31T07:56:01.317Z,102147.63
2018-08-31T07:58:29.041Z,102145.41
2018-08-31T08:00:56.797Z,102150.67
2018-08-31T08:03:24.476Z,102145.41
2018-08-31T08:05:53.062Z,102148.45
2018-08-31T08:08:21.228Z,102144.51
2018-08-31T08:10:49.163Z,102144.50
2018-08-31T08:13:16.841Z,102147.12
2018-08-31T08:15:44.875Z,102139.22
2018-08-31T08:18:12.478Z,102143.59
2018-08-31T08:20:40.138Z,102139.21
2018-08-31T08:23:08.083Z,102141.78
2018-08-31T08:25:35.790Z,102141.78
2018-08-31T08:28:03.726Z,102146.19
2018-08-31T08:30:31.383Z,102137.83
2018-08-31T08:32:59.405Z,102142.23
2018-08-31T08:35:27.154Z,102142.19
2018-08-31T08:37:55.452Z,102140.86
2018-08-31T08:40:23.128Z,102147.44
2018-08-31T08:42:50.785Z,102147.86
2018-08-31T08:45:18.891Z,102143.89
2018-08-31T08:47:46.802Z,102145.20
2018-08-31T08:50:14.487Z,102148.25
2018-08-31T08:52:42.149Z,102149.13
2018-08-31T08:55:09.783Z,102151.30
2018-08-31T08:57:38.015Z,102146.48
2018-08-31T09:00:05.825Z,102152.58
2018-08-31T09:02:33.776Z,102150.36
2018-08-31T09:05:02.148Z,102147.28
2018-08-31T09:07:29.797Z,102152.97
2018-08-31T09:09:57.494Z,102153.41
2018-08-31T09:12:25.739Z,102150.78
2018-08-31T09:14:53.629Z,102160.36
2018-08-31T09:17:21.305Z,102154.61
2018-08-31T09:19:49.373Z,102160.75
2018-08-31T09:22:17.223Z,102154.12
2018-08-31T09:24:45.163Z,102156.67
2018-08-31T09:27:13.814Z,102157.48
2018-08-31T09:29:41.879Z,102152.16
2018-08-31T09:32:14.912Z,102155.23
2018-08-31T09:34:47.969Z,102146.02
2018-08-31T09:37:17.004Z,102153.94
2018-08-31T09:39:44.837Z,102155.69
2018-08-31T09:42:12.471Z,102156.55
2018-08-31T09:44:40.137Z,102150.77
2018-08-31T09:47:08.294Z,102152.47
2018-08-31T09:49:36.010Z,102159.52
2018-08-31T09:52:03.627Z,102157.36
2018-08-31T09:54:31.798Z,102159.13
2018-08-31T09:57:00.026Z,102155.66
2018-08-31T09:59:27.735Z,102155.56
2018-08-31T10:02:00.506Z,102155.50
2018-08-31T10:04:28.258Z,102150.23
2018-08-31T10:06:55.970Z,102150.70
2018-08-31T10:09:23.634Z,102160.42
2018-08-31T10:11:51.281Z,102158.29
2018-08-31T10:14:19.106Z,102157.39
2018-08-31T10:16:48.119Z,102158.66
2018-08-31T10:19:16.089Z,102154.62
2018-08-31T10:21:44.124Z,102155.89
2018-08-31T10:24:11.992Z,102152.73
2018-08-31T10:26:40.498Z,102155.28
2018-08-31T10:29:08.609Z,102153.03
2018-08-31T10:31:37.037Z,102150.81
2018-08-31T10:34:04.917Z,102152.58
2018-08-31T10:36:33.117Z,102156.95
2018-08-31T10:39:00.812Z,102152.89
2018-08-31T10:41:28.760Z,102160.77
2018-08-31T10:43:57.188Z,102150.64
2018-08-31T10:46:24.837Z,102154.20
2018-08-31T10:48:52.520Z,102157.33
2018-08-31T10:51:20.145Z,102151.67
2018-08-31T10:53:47.823Z,102153.81
2018-08-31T10:56:15.506Z,102145.45
2018-08-31T10:58:43.164Z,102143.63
2018-08-31T11:01:10.819Z,102177.40
2018-08-31T11:03:38.564Z,102145.30
2018-08-31T11:06:06.588Z,102144.84
2018-08-31T11:08:34.312Z,102154.88
2018-08-31T11:11:02.226Z,102146.13
2018-08-31T11:13:30.511Z,102138.16
2018-08-31T11:15:58.448Z,102142.50
2018-08-31T11:18:26.652Z,102137.17
2018-08-31T11:20:54.596Z,102145.44
2018-08-31T11:23:22.619Z,102157.73
2018-08-31T11:25:50.269Z,102153.37
2018-08-31T11:28:18.308Z,102149.43
2018-08-31T11:30:45.913Z,102151.66
2018-08-31T11:33:14.052Z,102153.88
2018-08-31T11:35:41.676Z,102150.73
2018-08-31T11:38:09.387Z,102120.20
2018-08-31T11:40:37.348Z,102147.70
2018-08-31T11:43:05.404Z,102149.86
2018-08-31T11:45:33.902Z,102156.44
2018-08-31T11:48:02.169Z,102151.52
2018-08-31T11:50:29.822Z,102154.64
2018-08-31T11:52:58.064Z,102148.48
2018-08-31T11:55:26.924Z,102153.77
2018-08-31T11:57:54.542Z,102148.52
2018-08-31T12:00:22.247Z,102151.13
2018-08-31T12:02:50.685Z,102146.27
2018-08-31T12:05:18.432Z,102152.01
2018-08-31T12:07:46.104Z,102152.39
2018-08-31T12:10:14.198Z,102151.00
2018-08-31T12:12:42.592Z,102147.40
2018-08-31T12:15:10.368Z,102136.30
2018-08-31T12:17:38.282Z,102155.13
2018-08-31T12:20:06.566Z,102154.20
2018-08-31T12:22:34.227Z,102148.05
2018-08-31T12:25:02.430Z,102139.72
2018-08-31T12:27:30.709Z,102141.94
2018-08-31T12:29:58.616Z,102145.00
2018-08-31T12:32:26.359Z,102152.08
2018-08-31T12:34:54.050Z,102146.87
2018-08-31T12:37:21.941Z,102143.70
2018-08-31T12:39:49.812Z,102146.64
2018-08-31T12:42:17.808Z,102151.76
2018-08-31T12:44:46.173Z,102148.56
2018-08-31T12:47:14.041Z,102151.61
2018-08-31T12:49:41.707Z,102146.30
2018-08-31T12:52:09.379Z,102161.19
2018-08-31T12:54:37.375Z,102165.52
2018-08-31T12:57:05.045Z,102159.79
2018-08-31T12:59:32.807Z,102152.66
2018-08-31T13:02:00.905Z,102154.81
2018-08-31T13:04:29.526Z,102150.28
2018-08-31T13:06:57.551Z,102147.05
2018-08-31T13:09:25.396Z,102149.61
2018-08-31T13:11:53.765Z,102154.38
2018-08-31T13:14:21.710Z,102154.66
2018-08-31T13:16:49.606Z,102153.70
2018-08-31T13:19:17.657Z,102154.50
2018-08-31T13:21:45.353Z,102149.95
2018-08-31T13:24:13.016Z,102152.02
2018-08-31T13:26:40.897Z,102163.83
2018-08-31T13:29:08.531Z,102148.89
2018-08-31T13:31:42.866Z,102146.91
2018-08-31T13:34:10.807Z,102154.09
2018-08-31T13:36:38.517Z,102148.47
2018-08-31T13:39:06.625Z,102147.28
2018-08-31T13:41:34.279Z,102158.83
2018-08-31T13:44:02.583Z,102157.61
2018-08-31T13:46:30.592Z,102152.81
2018-08-31T13:48:58.271Z,102152.81
2018-08-31T13:51:25.900Z,102152.33
2018-08-31T13:53:53.559Z,102160.90
2018-08-31T13:56:21.576Z,102159.42
2018-08-31T13:58:49.575Z,102159.34
2018-08-31T14:01:17.239Z,102165.34
2018-08-31T14:03:45.187Z,102167.80
2018-08-31T14:06:13.035Z,102166.34
2018-08-31T14:08:40.647Z,102172.72
2018-08-31T14:11:08.272Z,102172.55
2018-08-31T14:13:35.978Z,102170.94
2018-08-31T14:16:03.597Z,102162.11
2018-08-31T14:18:31.514Z,102161.89
2018-08-31T14:20:59.151Z,102163.15
2018-08-31T14:23:26.834Z,102158.36
2018-08-31T14:25:54.439Z,102161.06
2018-08-31T14:28:22.030Z,102157.92
2018-08-31T14:30:49.962Z,102158.05
2018-08-31T14:33:17.573Z,102162.37
2018-08-31T14:35:45.808Z,102156.74
2018-08-31T14:38:13.814Z,102155.73
2018-08-31T14:40:41.449Z,102163.91
2018-08-31T14:43:09.684Z,102163.03
2018-08-31T14:45:37.756Z,102157.39
2018-08-31T14:48:05.372Z,102153.01
2018-08-31T14:50:33.056Z,102158.97
2018-08-31T14:53:00.740Z,102159.98
2018-08-31T14:55:28.368Z,102161.55
2018-08-31T14:57:56.311Z,102169.05
2018-08-31T15:00:24.401Z,102160.66
2018-08-31T15:02:52.087Z,102150.02
2018-08-31T15:05:19.780Z,102161.38
2018-08-31T15:07:47.452Z,102169.82
2018-08-31T15:10:15.434Z,102168.48
2018-08-31T15:12:44.456Z,102171.82
2018-08-31T15:15:12.174Z,102169.54
2018-08-31T15:17:40.137Z,102171.06
2018-08-31T15:20:08.173Z,102171.00
2018-08-31T15:22:36.213Z,102179.34
2018-08-31T15:25:03.952Z,102175.68
2018-08-31T15:27:31.631Z,102175.68
2018-08-31T15:29:59.355Z,102172.36
2018-08-31T15:32:27.020Z,102182.59
2018-08-31T15:34:54.964Z,102185.91
2018-08-31T15:37:23.243Z,102189.36
2018-08-31T15:39:51.266Z,102184.25
2018-08-31T15:42:18.978Z,102192.86
2018-08-31T15:44:46.997Z,102197.88
2018-08-31T15:47:14.628Z,102193.52
2018-08-31T15:49:42.614Z,102190.23
2018-08-31T15:52:10.482Z,102192.27
2018-08-31T15:54:38.129Z,102185.52
2018-08-31T15:57:05.790Z,102182.72
2018-08-31T15:59:33.868Z,102185.19
2018-08-31T16:02:01.874Z,102183.60
2018-08-31T16:04:29.558Z,102189.09
2018-08-31T16:06:57.516Z,102192.28
2018-08-31T16:09:25.725Z,102188.90
2018-08-31T16:11:53.681Z,102185.09
2018-08-31T16:14:21.905Z,102187.82
2018-08-31T16:16:49.798Z,102191.89
2018-08-31T16:19:18.096Z,102190.61
2018-08-31T16:21:45.839Z,102185.79
2018-08-31T16:24:13.777Z,102196.04
2018-08-31T16:26:41.725Z,102189.08
2018-08-31T16:29:09.360Z,102191.09
2018-08-31T16:31:37.465Z,102192.03
2018-08-31T16:34:05.502Z,102188.67
2018-08-31T16:36:33.185Z,102198.00
2018-08-31T16:39:00.971Z,102193.31
2018-08-31T16:41:28.983Z,102197.38
2018-08-31T16:43:56.709Z,102193.51
2018-08-31T16:46:24.701Z,102195.37
2018-08-31T16:48:52.632Z,102197.23
2018-08-31T16:51:20.597Z,102197.36
2018-08-31T16:53:49.472Z,102196.53
2018-08-31T16:56:17.524Z,102198.36
2018-08-31T16:58:45.162Z,102197.50
2018-08-31T17:01:12.901Z,102201.53
2018-08-31T17:03:40.605Z,102195.39
2018-08-31T17:06:08.248Z,102203.67
2018-08-31T17:08:35.938Z,102197.83
2018-08-31T17:11:03.692Z,102196.31
2018-08-31T17:13:31.370Z,102196.16
2018-08-31T17:15:59.052Z,102197.78
2018-08-31T17:18:26.701Z,102198.57
2018-08-31T17:20:54.381Z,102195.42
2018-08-31T17:23:22.324Z,102196.71
2018-08-31T17:25:50.076Z,102195.36
2018-08-31T17:28:23.301Z,102203.30
2018-08-31T17:30:56.661Z,102202.92
2018-08-31T17:33:29.801Z,102201.22
2018-08-31T17:36:03.010Z,102207.97
2018-08-31T17:38:30.937Z,102212.91
2018-08-31T17:40:58.600Z,102214.39
2018-08-31T17:43:26.322Z,102214.92
2018-08-31T17:45:53.949Z,102222.92
2018-08-31T17:48:21.967Z,102226.55
2018-08-31T17:50:50.106Z,102224.45
2018-08-31T17:53:18.121Z,102233.39
2018-08-31T17:55:45.788Z,102235.83
2018-08-31T17:58:13.677Z,102242.17
2018-08-31T18:00:41.701Z,102243.67
2018-08-31T18:03:09.362Z,102244.30
2018-08-31T18:05:37.034Z,102244.94
2018-08-31T18:08:05.049Z,102249.50
2018-08-31T18:10:32.728Z,102252.25
2018-08-31T18:13:00.361Z,102252.76
2018-08-31T18:15:28.362Z,102252.86
2018-08-31T18:17:56.017Z,102248.56
2018-08-31T18:20:23.698Z,102251.72
2018-08-31T18:22:51.373Z,102255.34
2018-08-31T18:25:19.057Z,102255.83
2018-08-31T18:27:46.800Z,102265.15
2018-08-31T18:30:14.678Z,102264.36
2018-08-31T18:32:42.629Z,102262.23
2018-08-31T18:35:10.272Z,102264.48
2018-08-31T18:37:37.896Z,102261.94
2018-08-31T18:40:05.873Z,102267.67
2018-08-31T18:42:33.515Z,102264.64
2018-08-31T18:45:01.848Z,102264.27
2018-08-31T18:47:29.520Z,102268.72
2018-08-31T18:49:57.557Z,102271.40
2018-08-31T18:52:26.182Z,102277.17
2018-08-31T18:54:54.234Z,102275.89
2018-08-31T18:57:21.889Z,102275.91
2018-08-31T18:59:49.950Z,102284.75
2018-08-31T19:02:17.930Z,102279.52
2018-08-31T19:04:45.819Z,102287.92
2018-08-31T19:07:13.607Z,102289.26
2018-08-31T19:09:41.294Z,102294.11
2018-08-31T19:12:09.024Z,102292.82
2018-08-31T19:14:36.714Z,102294.63
2018-08-31T19:17:04.386Z,102289.80
2018-08-31T19:19:32.325Z,102294.25
2018-08-31T19:22:00.149Z,102297.80
2018-08-31T19:24:27.779Z,102290.31
2018-08-31T19:26:57.417Z,102288.59
2018-08-31T19:29:26.077Z,102295.20
2018-08-31T19:31:54.072Z,102290.85
2018-08-31T19:34:22.427Z,102294.39
2018-08-31T19:36:50.416Z,102297.95
2018-08-31T19:39:18.137Z,102298.38
2018-08-31T19:41:45.842Z,102284.94
2018-08-31T19:44:13.754Z,102302.38
2018-08-31T19:46:41.483Z,102300.22
2018-08-31T19:49:09.340Z,102296.70
2018-08-31T19:51:37.623Z,102293.66
2018-08-31T19:54:05.325Z,102293.25
2018-08-31T19:56:32.955Z,102289.77
2018-08-31T19:59:00.850Z,102286.69
2018-08-31T20:01:28.559Z,102288.91
2018-08-31T20:03:56.542Z,102290.66
2018-08-31T20:06:24.812Z,102294.66
2018-08-31T20:08:52.773Z,102296.00
2018-08-31T20:11:20.451Z,102296.44
2018-08-31T20:13:48.183Z,102294.27
2018-08-31T20:16:15.898Z,102295.13
2018-08-31T20:18:43.822Z,102295.15
2018-08-31T20:21:11.487Z,102296.52
2018-08-31T20:23:39.158Z,102295.63
2018-08-31T20:26:06.864Z,102292.16
2018-08-31T20:28:34.514Z,102288.20
2018-08-31T20:31:02.234Z,102293.50
2018-08-31T20:33:29.969Z,102292.17
2018-08-31T20:35:57.662Z,102291.77
2018-08-31T20:38:25.582Z,102291.77
2018-08-31T20:40:59.958Z,102296.16
2018-08-31T20:43:27.941Z,102307.63
2018-08-31T20:45:56.241Z,102305.42
2018-08-31T20:48:24.529Z,102307.64
2018-08-31T20:50:52.963Z,102308.08
2018-08-31T20:53:21.245Z,102302.85
2018-08-31T20:55:49.221Z,102307.23
2018-08-31T20:58:16.948Z,102303.30
2018-08-31T21:00:44.913Z,102309.89
2018-08-31T21:03:13.127Z,102309.01
2018-08-31T21:05:40.916Z,102309.48
2018-08-31T21:08:09.368Z,102309.48
2018-08-31T21:10:37.077Z,102308.60
2018-08-31T21:13:05.424Z,102310.39
2018-08-31T21:15:33.336Z,102307.77
2018-08-31T21:18:01.382Z,102314.78
2018-08-31T21:20:29.361Z,102309.09
2018-08-31T21:22:57.062Z,102311.31
2018-08-31T21:25:25.051Z,102316.59
2018-08-31T21:27:53.066Z,102320.98
2018-08-31T21:30:20.781Z,102324.11
2018-08-31T21:32:48.509Z,102328.50
2018-08-31T21:35:16.149Z,102322.81
2018-08-31T21:37:44.155Z,102329.83
2018-08-31T21:40:12.090Z,102326.77
2018-08-31T21:42:39.766Z,102332.94
2018-08-31T21:45:07.503Z,102328.55
2018-08-31T21:47:35.753Z,102335.57
2018-08-31T21:50:03.400Z,102338.20
2018-08-31T21:52:31.346Z,102331.61
2018-08-31T21:54:59.344Z,102333.83
2018-08-31T21:57:27.004Z,102337.38
2018-08-31T21:59:54.672Z,102334.31
2018-08-31T22:02:22.325Z,102332.99
2018-08-31T22:04:50.036Z,102334.33
2018-08-31T22:07:18.116Z,102336.09
2018-08-31T22:09:45.812Z,102338.30
2018-08-31T22:12:13.483Z,102335.25
2018-08-31T22:14:41.194Z,102337.88
2018-08-31T22:17:08.874Z,102343.16
2018-08-31T22:19:36.680Z,102342.73
2018-08-31T22:22:04.357Z,102341.42
2018-08-31T22:24:31.992Z,102339.23
2018-08-31T22:26:59.707Z,102344.51
2018-08-31T22:29:27.353Z,102341.45
2018-08-31T22:31:55.069Z,102342.77
2018-08-31T22:34:22.861Z,102341.47
2018-08-31T22:36:50.904Z,102341.47
2018-08-31T22:39:19.002Z,102344.56
2018-08-31T22:41:47.026Z,102340.16
2018-08-31T22:44:14.690Z,102337.09
2018-08-31T22:46:42.316Z,102333.57
2018-08-31T22:49:10.068Z,102336.69
2018-08-31T22:51:37.995Z,102338.00
2018-08-31T22:54:05.690Z,102329.21
2018-08-31T22:56:33.368Z,102338.45
2018-08-31T22:59:01.075Z,102330.12
2018-08-31T23:01:29.349Z,102329.22
2018-08-31T23:03:56.995Z,102337.59
2018-08-31T23:06:28.660Z,102337.59
2018-08-31T23:08:56.737Z,102338.91
2018-08-31T23:11:24.450Z,102339.34
2018-08-31T23:13:52.536Z,102340.66
2018-08-31T23:16:20.197Z,102339.34
2018-08-31T23:18:48.081Z,102344.61
2018-08-31T23:21:16.164Z,102349.03
2018-08-31T23:23:49.172Z,102345.52
2018-08-31T23:26:17.568Z,102352.99
2018-08-31T23:28:45.353Z,102353.00
2018-08-31T23:31:13.249Z,102349.05
2018-08-31T23:33:41.304Z,102352.12
2018-08-31T23:36:09.418Z,102356.49
2018-08-31T23:38:37.451Z,102346.86
2018-08-31T23:41:05.178Z,102347.76
2018-08-31T23:43:32.865Z,102344.27
2018-08-31T23:46:01.114Z,102344.27
2018-08-31T23:48:28.786Z,102337.22
2018-08-31T23:50:56.707Z,102340.73
2018-08-31T23:53:25.807Z,102339.00
2018-08-31T23:55:53.478Z,102339.02
2018-08-31T23:58:21.425Z,102341.18
